Time;durP1;ratioP1;P1;durP2;ratioP2;P2;SDS_P1;SDS_P2;PMS_P1;PMS_P2;Temp;Humidity;BMP_temperature;BMP_pressure;BME280_temperature;BME280_humidity;BME280_pressure;Samples;Min_cycle;Max_cycle;Signal;HPM_P1;HPM_P2
2021/12/20 00:01:06;;;;;;;10.03;6.47;;;5.80;99.90;;;;;;5058846;28;20181;-87
2021/12/20 00:03:32;;;;;;;15.67;6.90;;;5.90;99.90;;;;;;5058986;28;20182;-87
2021/12/20 00:05:58;;;;;;;18.67;6.40;;;5.90;99.90;;;;;;5059295;28;20175;-83
2021/12/20 00:08:24;;;;;;;14.63;6.50;;;5.90;99.90;;;;;;5060118;28;20170;-83
2021/12/20 00:10:49;;;;;;;14.50;7.23;;;5.90;99.90;;;;;;5054372;28;20614;-83
2021/12/20 00:13:16;;;;;;;12.63;7.00;;;5.90;99.90;;;;;;5055840;28;20678;-84
2021/12/20 00:15:42;;;;;;;12.73;6.43;;;5.90;99.90;;;;;;5054904;28;20262;-84
2021/12/20 00:18:08;;;;;;;16.13;6.77;;;5.90;99.90;;;;;;5055308;28;20178;-84
2021/12/20 00:20:34;;;;;;;9.40;6.10;;;5.80;99.90;;;;;;5055577;28;20540;-83
2021/12/20 00:22:59;;;;;;;8.67;6.10;;;5.80;99.90;;;;;;5057784;28;20190;-84
2021/12/20 00:25:25;;;;;;;13.03;6.47;;;5.80;99.90;;;;;;5056284;28;20198;-83
2021/12/20 00:27:51;;;;;;;13.93;7.17;;;5.80;99.90;;;;;;5056583;28;20175;-83
2021/12/20 00:30:17;;;;;;;16.50;6.67;;;5.80;99.90;;;;;;5058643;28;20181;-83
2021/12/20 00:32:43;;;;;;;13.07;5.97;;;5.80;99.90;;;;;;5057000;28;20206;-83
2021/12/20 00:35:09;;;;;;;14.07;6.83;;;5.80;99.90;;;;;;5059508;28;20208;-83
2021/12/20 00:40:22;;;;;;;16.47;6.63;;;5.80;99.90;;;;;;5060100;28;20197;-88
2021/12/20 00:42:57;;;;;;;13.10;5.83;;;5.80;99.90;;;;;;5061140;28;20194;-89
2021/12/20 00:45:25;;;;;;;11.77;6.17;;;5.70;99.90;;;;;;5060550;28;20169;-88
2021/12/20 00:47:51;;;;;;;14.67;6.07;;;5.70;99.90;;;;;;5060394;28;20174;-87
2021/12/20 00:50:19;;;;;;;16.70;6.40;;;5.70;99.90;;;;;;5058967;28;20228;-86
2021/12/20 00:52:45;;;;;;;15.80;6.83;;;5.80;99.90;;;;;;5060188;28;20194;-88
2021/12/20 00:55:17;;;;;;;12.30;6.33;;;5.70;99.90;;;;;;5059777;28;20178;-83
2021/12/20 00:57:47;;;;;;;15.37;6.47;;;5.70;99.90;;;;;;5060752;28;20179;-84
2021/12/20 01:00:16;;;;;;;14.87;6.50;;;5.70;99.90;;;;;;5060575;28;20213;-83
2021/12/20 01:02:41;;;;;;;12.30;5.60;;;5.70;99.90;;;;;;5060412;28;20281;-85
2021/12/20 01:05:08;;;;;;;15.47;6.10;;;5.70;99.90;;;;;;5062457;28;20197;-84
2021/12/20 01:07:34;;;;;;;15.33;6.13;;;5.70;99.90;;;;;;5057390;28;20189;-84
2021/12/20 01:10:03;;;;;;;14.07;6.63;;;5.60;99.90;;;;;;5074252;28;20601;-84
2021/12/20 01:12:36;;;;;;;16.60;5.77;;;5.70;99.90;;;;;;5058330;28;20698;-83
2021/12/20 01:15:03;;;;;;;10.73;6.00;;;5.70;99.90;;;;;;5069509;28;20170;-83
2021/12/20 01:17:30;;;;;;;20.10;6.67;;;5.70;99.90;;;;;;5060319;28;20209;-84
2021/12/20 01:19:56;;;;;;;15.63;6.03;;;5.70;99.90;;;;;;5060737;28;20714;-83
2021/12/20 01:22:21;;;;;;;16.50;6.53;;;5.70;99.90;;;;;;5076715;28;20244;-88
2021/12/20 01:24:47;;;;;;;14.27;6.70;;;5.70;99.90;;;;;;5059612;28;20604;-88
2021/12/20 01:27:13;;;;;;;16.87;6.40;;;5.60;99.90;;;;;;5059674;28;20179;-88
2021/12/20 01:29:38;;;;;;;15.73;6.50;;;5.60;99.90;;;;;;5059060;28;20654;-88
2021/12/20 01:32:04;;;;;;;16.07;7.00;;;5.70;99.90;;;;;;5059100;28;20194;-88
2021/12/20 01:34:30;;;;;;;18.00;6.23;;;5.60;99.90;;;;;;5075770;28;20300;-88
2021/12/20 01:36:56;;;;;;;21.23;6.03;;;5.60;99.90;;;;;;5059353;28;20182;-88
2021/12/20 01:39:22;;;;;;;15.77;5.90;;;5.60;99.90;;;;;;5060138;28;20202;-88
2021/12/20 01:41:51;;;;;;;15.20;6.63;;;5.60;99.90;;;;;;5060333;28;20201;-88
2021/12/20 01:44:18;;;;;;;16.67;6.70;;;5.60;99.90;;;;;;5064892;28;20185;-83
2021/12/20 01:46:43;;;;;;;14.73;6.40;;;5.60;99.90;;;;;;5062441;28;20182;-88
2021/12/20 01:49:12;;;;;;;15.27;6.83;;;5.60;99.90;;;;;;5058475;28;20174;-88
2021/12/20 01:54:23;;;;;;;16.10;6.37;;;5.70;99.90;;;;;;5056235;28;20598;-88
2021/12/20 01:56:49;;;;;;;15.50;6.37;;;5.60;99.90;;;;;;5055005;28;20202;-88
2021/12/20 01:59:15;;;;;;;19.37;6.77;;;5.60;99.90;;;;;;5054700;28;20206;-88
2021/12/20 02:01:42;;;;;;;17.60;7.20;;;5.60;99.90;;;;;;5054949;28;20198;-88
2021/12/20 02:04:09;;;;;;;17.47;6.93;;;5.60;99.90;;;;;;5054918;28;20639;-84
2021/12/20 02:06:39;;;;;;;15.27;6.27;;;5.60;99.90;;;;;;5055418;28;20185;-84
2021/12/20 02:09:09;;;;;;;10.43;6.80;;;5.60;99.90;;;;;;5055218;28;20174;-84
2021/12/20 02:11:37;;;;;;;13.30;6.43;;;5.60;99.90;;;;;;5056360;28;20197;-85
2021/12/20 02:14:04;;;;;;;17.10;6.77;;;5.60;99.90;;;;;;5056384;28;20175;-88
2021/12/20 02:16:30;;;;;;;16.70;6.53;;;5.60;99.90;;;;;;5055231;28;20265;-88
2021/12/20 02:18:55;;;;;;;19.20;7.10;;;5.60;99.90;;;;;;5054884;28;20309;-89
2021/12/20 02:21:21;;;;;;;11.40;6.10;;;5.60;99.90;;;;;;5055038;28;20189;-88
2021/12/20 02:23:49;;;;;;;17.87;6.60;;;5.60;99.90;;;;;;5056358;28;20189;-88
2021/12/20 02:26:18;;;;;;;15.93;7.17;;;5.70;99.90;;;;;;5054477;28;20198;-86
2021/12/20 02:28:47;;;;;;;27.17;7.50;;;5.60;99.90;;;;;;5056101;28;20175;-87
2021/12/20 02:39:08;;;;;;;18.10;6.53;;;5.70;99.90;;;;;;5055584;28;20697;-88
2021/12/20 02:41:34;;;;;;;16.17;6.87;;;5.70;99.90;;;;;;5053807;28;20198;-86
2021/12/20 02:44:05;;;;;;;17.27;6.57;;;5.60;99.90;;;;;;5055728;28;20171;-86
2021/12/20 02:49:08;;;;;;;15.17;6.37;;;5.60;99.90;;;;;;5055499;28;20197;-86
2021/12/20 02:51:36;;;;;;;15.87;7.00;;;5.60;99.90;;;;;;5054031;28;20202;-86
2021/12/20 02:54:04;;;;;;;14.03;6.87;;;5.60;99.90;;;;;;5054008;28;20182;-86
2021/12/20 02:56:30;;;;;;;10.07;6.47;;;5.60;99.90;;;;;;5054183;28;20666;-86
2021/12/20 02:58:56;;;;;;;15.50;6.37;;;5.60;99.90;;;;;;5053946;28;20260;-84
2021/12/20 03:01:23;;;;;;;14.80;5.77;;;5.60;99.90;;;;;;5052536;28;20179;-90
2021/12/20 03:03:50;;;;;;;18.13;6.77;;;5.60;99.90;;;;;;5053560;28;20204;-90
2021/12/20 03:06:27;;;;;;;14.70;6.13;;;5.60;99.90;;;;;;5053679;28;20227;-89
2021/12/20 03:08:56;;;;;;;13.97;6.43;;;5.60;99.90;;;;;;5055034;28;20163;-90
2021/12/20 03:11:24;;;;;;;16.50;6.43;;;5.60;99.90;;;;;;5053288;28;20230;-90
2021/12/20 03:13:55;;;;;;;17.57;6.33;;;5.60;99.90;;;;;;5053436;28;20174;-90
2021/12/20 03:16:21;;;;;;;15.63;5.97;;;5.60;99.90;;;;;;5053254;28;20175;-90
2021/12/20 03:18:47;;;;;;;15.27;6.00;;;5.50;99.90;;;;;;5053734;28;20293;-90
2021/12/20 03:21:12;;;;;;;13.83;5.80;;;5.50;99.90;;;;;;5056865;28;20184;-90
2021/12/20 03:23:38;;;;;;;12.83;6.60;;;5.50;99.90;;;;;;5069506;28;20234;-90
2021/12/20 03:26:05;;;;;;;19.50;7.10;;;5.60;99.90;;;;;;5075189;28;20216;-89
2021/12/20 03:28:31;;;;;;;16.57;6.17;;;5.50;99.90;;;;;;5065289;28;20186;-88
2021/12/20 03:30:57;;;;;;;14.20;5.97;;;5.50;99.90;;;;;;5056843;28;20185;-88
2021/12/20 03:33:23;;;;;;;13.87;5.53;;;5.50;99.90;;;;;;5056286;28;20202;-88
2021/12/20 03:35:48;;;;;;;12.37;6.53;;;5.50;99.90;;;;;;5055655;28;20185;-88
2021/12/20 03:38:14;;;;;;;16.53;6.37;;;5.50;99.90;;;;;;5055941;28;20187;-86
2021/12/20 03:40:40;;;;;;;14.50;5.90;;;5.50;99.90;;;;;;5056583;28;20174;-86
2021/12/20 03:43:09;;;;;;;14.07;6.43;;;5.50;99.90;;;;;;5056295;28;20202;-86
2021/12/20 03:45:36;;;;;;;20.93;6.30;;;5.50;99.90;;;;;;5056450;28;20185;-86
2021/12/20 03:48:02;;;;;;;15.77;6.00;;;5.50;99.90;;;;;;5055622;28;20178;-86
2021/12/20 03:50:27;;;;;;;12.47;5.93;;;5.50;99.90;;;;;;5056285;28;20324;-86
2021/12/20 03:52:53;;;;;;;14.40;5.90;;;5.50;99.90;;;;;;5055554;28;20230;-86
2021/12/20 03:55:19;;;;;;;17.67;6.00;;;5.40;99.90;;;;;;5055856;28;20277;-86
2021/12/20 03:57:45;;;;;;;14.90;5.50;;;5.40;99.90;;;;;;5057213;28;20545;-86
2021/12/20 04:00:14;;;;;;;22.03;6.43;;;5.40;99.90;;;;;;5053543;28;20296;-90
2021/12/20 04:02:43;;;;;;;18.03;6.10;;;5.40;99.90;;;;;;5054113;28;20190;-89
2021/12/20 04:05:11;;;;;;;15.57;6.23;;;5.40;99.90;;;;;;5052749;28;20174;-90
2021/12/20 04:07:37;;;;;;;21.93;6.00;;;5.40;99.90;;;;;;5052667;28;20261;-90
2021/12/20 04:10:04;;;;;;;15.00;6.43;;;5.40;99.90;;;;;;5052819;28;20666;-90
2021/12/20 04:12:30;;;;;;;24.47;6.23;;;5.40;99.90;;;;;;5068946;28;20675;-90
2021/12/20 04:14:56;;;;;;;22.53;6.50;;;5.40;99.90;;;;;;5052833;28;20268;-90
2021/12/20 04:17:22;;;;;;;20.50;6.97;;;5.40;99.90;;;;;;5068176;28;20162;-89
2021/12/20 04:19:47;;;;;;;15.83;6.20;;;5.40;99.90;;;;;;5076573;28;20213;-87
2021/12/20 04:22:15;;;;;;;19.67;7.60;;;5.40;99.90;;;;;;5053477;28;20628;-85
2021/12/20 04:24:41;;;;;;;16.57;6.67;;;5.40;99.90;;;;;;5052421;28;20194;-85
2021/12/20 04:27:07;;;;;;;18.90;6.17;;;5.40;99.90;;;;;;5054200;28;20635;-85
2021/12/20 04:29:33;;;;;;;22.63;6.87;;;5.40;99.90;;;;;;5053723;28;20277;-85
2021/12/20 04:31:59;;;;;;;21.47;6.77;;;5.40;99.90;;;;;;5052505;28;20198;-84
2021/12/20 04:34:25;;;;;;;19.90;6.23;;;5.30;99.90;;;;;;5053790;28;20175;-84
2021/12/20 04:36:51;;;;;;;14.17;5.77;;;5.40;99.90;;;;;;5052517;28;20266;-88
2021/12/20 04:39:20;;;;;;;22.93;6.40;;;5.30;99.90;;;;;;5052390;28;20281;-90
2021/12/20 04:41:46;;;;;;;29.43;7.60;;;5.30;99.90;;;;;;5052380;28;20579;-89
2021/12/20 04:44:12;;;;;;;16.50;6.50;;;5.30;99.90;;;;;;5053498;28;20170;-89
2021/12/20 04:46:38;;;;;;;24.37;6.87;;;5.20;99.90;;;;;;5055717;28;20174;-89
2021/12/20 04:49:04;;;;;;;13.77;7.07;;;5.10;99.90;;;;;;5062629;28;20193;-86
2021/12/20 04:51:30;;;;;;;12.73;6.20;;;5.10;99.90;;;;;;5059490;28;20198;-86
2021/12/20 04:53:56;;;;;;;20.13;6.60;;;5.00;99.90;;;;;;5054229;28;20178;-86
2021/12/20 04:56:22;;;;;;;23.03;7.13;;;4.90;99.90;;;;;;5053125;28;20265;-86
2021/12/20 04:58:48;;;;;;;17.33;6.90;;;4.90;99.90;;;;;;5051968;28;20198;-86
2021/12/20 05:01:13;;;;;;;24.33;7.70;;;4.80;99.90;;;;;;5051916;28;20643;-88
2021/12/20 05:03:39;;;;;;;13.80;6.17;;;4.80;99.90;;;;;;5052164;28;20537;-87
2021/12/20 05:06:05;;;;;;;15.63;7.00;;;4.70;99.90;;;;;;5052660;28;20171;-87
2021/12/20 05:08:36;;;;;;;14.07;6.00;;;4.70;99.90;;;;;;5053167;28;20179;-83
2021/12/20 05:11:05;;;;;;;11.80;5.90;;;4.60;99.90;;;;;;5053957;28;20213;-82
2021/12/20 05:13:32;;;;;;;14.57;6.57;;;4.60;99.90;;;;;;5055742;28;20199;-81
2021/12/20 05:15:58;;;;;;;23.23;6.80;;;4.50;99.90;;;;;;5055839;28;20185;-81
2021/12/20 05:18:24;;;;;;;16.17;6.00;;;4.40;99.90;;;;;;5056676;28;20639;-81
2021/12/20 05:20:49;;;;;;;28.00;6.57;;;4.40;99.90;;;;;;5057554;28;20197;-81
2021/12/20 05:23:15;;;;;;;23.43;7.07;;;4.30;99.90;;;;;;5057521;28;20277;-82
2021/12/20 05:25:41;;;;;;;17.50;6.00;;;4.30;99.90;;;;;;5056325;28;20187;-84
2021/12/20 05:28:08;;;;;;;18.30;6.50;;;4.20;99.90;;;;;;5058685;28;20178;-84
2021/12/20 05:30:34;;;;;;;14.77;6.33;;;4.10;99.90;;;;;;5060527;28;20178;-84
2021/12/20 05:33:01;;;;;;;15.70;6.60;;;4.00;99.90;;;;;;5061374;28;20289;-84
2021/12/20 05:35:27;;;;;;;22.87;7.20;;;3.90;99.90;;;;;;5061382;28;20190;-84
2021/12/20 05:37:53;;;;;;;16.23;6.60;;;3.90;99.90;;;;;;5060714;28;20257;-83
2021/12/20 05:40:20;;;;;;;15.83;6.47;;;3.80;99.90;;;;;;5059593;28;20221;-84
2021/12/20 05:42:46;;;;;;;14.53;6.60;;;3.80;99.90;;;;;;5057035;28;20690;-83
2021/12/20 05:45:13;;;;;;;18.30;6.50;;;3.80;99.90;;;;;;5058050;28;20179;-84
2021/12/20 05:47:39;;;;;;;13.23;6.90;;;3.70;99.90;;;;;;5057077;28;20178;-84
2021/12/20 05:50:07;;;;;;;15.53;6.23;;;3.80;99.90;;;;;;5055592;28;20658;-84
2021/12/20 05:52:33;;;;;;;18.80;6.90;;;3.80;99.90;;;;;;5072664;28;20209;-84
2021/12/20 05:54:59;;;;;;;27.17;7.20;;;3.80;99.90;;;;;;5055333;28;20183;-84
2021/12/20 05:57:24;;;;;;;19.73;7.50;;;3.90;99.90;;;;;;5055730;28;20244;-83
2021/12/20 05:59:50;;;;;;;21.03;7.50;;;3.90;99.90;;;;;;5055680;28;20206;-83
2021/12/20 06:02:16;;;;;;;14.73;6.93;;;3.90;99.90;;;;;;5057819;28;20194;-83
2021/12/20 06:04:42;;;;;;;14.63;6.47;;;3.90;99.90;;;;;;5056035;28;20174;-81
2021/12/20 06:07:09;;;;;;;15.23;7.03;;;3.90;99.90;;;;;;5056265;28;20170;-81
2021/12/20 06:09:35;;;;;;;15.63;6.53;;;3.90;99.90;;;;;;5056265;28;20180;-81
2021/12/20 06:12:01;;;;;;;15.90;5.83;;;3.90;99.90;;;;;;5057452;28;20209;-82
2021/12/20 06:14:28;;;;;;;21.80;7.03;;;3.90;99.90;;;;;;5055901;28;20186;-85
2021/12/20 06:16:55;;;;;;;20.10;6.67;;;3.90;99.90;;;;;;5056270;28;20175;-85
2021/12/20 06:19:23;;;;;;;16.73;6.80;;;3.90;99.90;;;;;;5056030;28;20256;-84
2021/12/20 06:21:49;;;;;;;14.50;6.70;;;4.00;99.90;;;;;;5056936;28;20615;-84
2021/12/20 06:24:15;;;;;;;17.97;6.37;;;4.00;99.90;;;;;;5055727;28;20198;-84
2021/12/20 06:26:41;;;;;;;23.20;7.40;;;4.00;99.90;;;;;;5055966;28;20542;-81
2021/12/20 06:29:07;;;;;;;14.53;7.10;;;3.90;99.90;;;;;;5055991;28;20224;-85
2021/12/20 06:31:32;;;;;;;15.53;7.33;;;3.80;99.90;;;;;;5055357;28;20203;-85
2021/12/20 06:33:58;;;;;;;18.40;6.87;;;3.70;99.90;;;;;;5055620;28;20236;-85
2021/12/20 06:36:26;;;;;;;25.37;7.50;;;3.60;99.90;;;;;;5056131;28;20186;-85
2021/12/20 06:38:53;;;;;;;17.60;7.50;;;3.50;99.90;;;;;;5056699;28;20198;-85
2021/12/20 06:41:20;;;;;;;19.83;6.70;;;3.50;99.90;;;;;;5056782;28;20627;-85
2021/12/20 06:43:46;;;;;;;16.33;7.27;;;3.40;99.90;;;;;;5055264;28;20178;-84
2021/12/20 06:46:14;;;;;;;26.67;8.33;;;3.40;99.90;;;;;;5055401;28;20265;-86
2021/12/20 06:48:40;;;;;;;17.53;7.07;;;3.40;99.90;;;;;;5056002;28;20186;-86
2021/12/20 06:51:05;;;;;;;13.47;6.40;;;3.20;99.90;;;;;;5055389;28;20268;-86
2021/12/20 06:53:31;;;;;;;13.37;6.73;;;3.10;99.90;;;;;;5055377;28;20206;-86
2021/12/20 06:55:57;;;;;;;23.73;7.30;;;3.10;99.90;;;;;;5056401;28;20178;-86
2021/12/20 06:58:23;;;;;;;19.57;7.93;;;3.10;99.90;;;;;;5055247;28;20213;-86
2021/12/20 07:00:51;;;;;;;19.77;7.70;;;3.00;99.90;;;;;;5055581;28;20186;-86
2021/12/20 07:03:18;;;;;;;20.57;7.77;;;2.80;99.90;;;;;;5055141;28;20195;-86
2021/12/20 07:05:44;;;;;;;18.67;7.40;;;2.70;99.90;;;;;;5063070;28;20232;-87
2021/12/20 07:08:09;;;;;;;15.20;7.13;;;2.70;99.90;;;;;;5063382;28;20171;-87
2021/12/20 07:10:35;;;;;;;16.70;7.13;;;2.70;99.90;;;;;;5062633;28;20186;-87
2021/12/20 07:13:01;;;;;;;9.30;6.10;;;2.60;99.90;;;;;;5055970;28;20687;-83
2021/12/20 07:15:27;;;;;;;18.13;7.10;;;2.60;99.90;;;;;;5055992;28;20232;-85
2021/12/20 07:17:53;;;;;;;14.83;7.67;;;2.60;99.90;;;;;;5056651;28;20242;-85
2021/12/20 07:20:19;;;;;;;21.20;6.67;;;2.50;99.90;;;;;;5056566;28;20208;-80
2021/12/20 07:22:45;;;;;;;18.57;7.00;;;2.50;99.90;;;;;;5056968;28;20197;-82
2021/12/20 07:25:11;;;;;;;15.07;6.97;;;2.40;99.90;;;;;;5054183;28;20244;-82
2021/12/20 07:27:37;;;;;;;10.97;7.07;;;2.40;99.90;;;;;;5054101;28;20178;-82
2021/12/20 07:30:04;;;;;;;16.77;7.37;;;2.30;99.90;;;;;;5054384;28;20174;-82
2021/12/20 07:32:31;;;;;;;20.47;7.17;;;2.30;99.90;;;;;;5071992;28;20199;-86
2021/12/20 07:34:57;;;;;;;16.70;7.40;;;2.30;99.90;;;;;;5057252;28;20635;-86
2021/12/20 07:37:25;;;;;;;10.07;6.90;;;2.30;99.90;;;;;;5056317;28;20185;-83
2021/12/20 07:39:51;;;;;;;13.80;6.97;;;2.30;99.90;;;;;;5055516;28;20206;-86
2021/12/20 07:42:17;;;;;;;14.33;6.70;;;2.20;99.90;;;;;;5057230;28;20218;-85
2021/12/20 07:44:44;;;;;;;17.97;7.50;;;2.20;99.90;;;;;;5056769;28;20159;-83
2021/12/20 07:47:10;;;;;;;14.20;6.77;;;2.20;99.90;;;;;;5055045;28;20171;-84
2021/12/20 07:49:35;;;;;;;23.67;7.60;;;2.10;99.90;;;;;;5055951;28;20657;-83
2021/12/20 07:52:02;;;;;;;17.37;8.17;;;2.10;99.90;;;;;;5057693;28;20198;-84
2021/12/20 07:54:28;;;;;;;15.97;7.60;;;2.00;99.90;;;;;;5058812;28;20256;-82
2021/12/20 07:56:54;;;;;;;17.07;7.83;;;2.00;99.90;;;;;;5053828;28;20202;-82
2021/12/20 07:59:19;;;;;;;20.73;8.07;;;2.10;99.90;;;;;;5053756;28;20205;-82
2021/12/20 08:01:45;;;;;;;18.57;8.90;;;2.10;99.90;;;;;;5068374;28;20228;-84
2021/12/20 08:04:11;;;;;;;16.77;7.73;;;2.10;99.90;;;;;;5075944;28;20179;-84
2021/12/20 08:06:37;;;;;;;18.50;9.77;;;2.10;99.90;;;;;;5073650;28;20189;-84
2021/12/20 08:09:04;;;;;;;13.40;8.57;;;2.10;99.90;;;;;;5073617;28;20245;-84
2021/12/20 08:11:30;;;;;;;16.97;9.57;;;2.00;99.90;;;;;;5075587;28;20174;-84
2021/12/20 08:13:56;;;;;;;30.50;14.97;;;2.00;99.90;;;;;;5072649;28;20167;-84
2021/12/20 08:16:22;;;;;;;31.83;15.37;;;2.10;99.90;;;;;;5073333;28;20185;-84
2021/12/20 08:18:47;;;;;;;28.97;13.33;;;2.10;99.90;;;;;;5071919;28;20202;-84
2021/12/20 08:21:15;;;;;;;18.40;11.53;;;2.00;99.90;;;;;;5071650;28;20232;-84
2021/12/20 08:23:41;;;;;;;28.87;13.93;;;2.00;99.90;;;;;;5072876;28;20693;-84
2021/12/20 08:26:08;;;;;;;22.00;12.63;;;1.90;99.90;;;;;;5073687;28;20198;-84
2021/12/20 08:28:35;;;;;;;23.20;12.60;;;1.90;99.90;;;;;;5074163;28;20217;-84
2021/12/20 08:31:06;;;;;;;21.67;10.87;;;1.90;99.90;;;;;;5073262;28;20194;-85
2021/12/20 08:33:35;;;;;;;15.83;9.00;;;1.90;99.90;;;;;;5072673;28;20281;-85
2021/12/20 08:36:06;;;;;;;16.67;7.77;;;2.00;99.90;;;;;;5088628;28;20167;-84
2021/12/20 08:38:33;;;;;;;11.33;7.73;;;2.00;99.90;;;;;;5064587;28;20536;-83
2021/12/20 08:40:59;;;;;;;11.40;7.83;;;2.00;99.90;;;;;;5055097;28;20238;-83
2021/12/20 08:43:27;;;;;;;13.03;7.90;;;2.00;99.90;;;;;;5075158;28;20199;-84
2021/12/20 08:45:53;;;;;;;18.63;8.63;;;2.00;99.90;;;;;;5054253;28;20180;-84
2021/12/20 08:48:19;;;;;;;16.03;8.60;;;2.00;99.90;;;;;;5053996;28;20547;-84
2021/12/20 08:50:44;;;;;;;15.43;8.00;;;2.00;99.90;;;;;;5053584;28;20187;-83
2021/12/20 08:53:11;;;;;;;14.40;8.13;;;2.10;99.90;;;;;;5054661;28;20194;-83
2021/12/20 08:55:38;;;;;;;12.37;8.50;;;2.10;99.90;;;;;;5060147;28;20194;-85
2021/12/20 08:58:05;;;;;;;16.17;8.30;;;2.10;99.90;;;;;;5059364;28;20181;-84
2021/12/20 09:00:33;;;;;;;11.57;7.47;;;2.20;99.90;;;;;;5064071;28;20199;-86
2021/12/20 09:03:01;;;;;;;21.23;8.37;;;2.40;99.90;;;;;;5067140;28;20213;-84
2021/12/20 09:05:29;;;;;;;15.07;8.07;;;2.40;99.90;;;;;;5067320;28;20192;-86
2021/12/20 09:07:57;;;;;;;14.33;7.90;;;2.60;99.90;;;;;;5070269;28;20178;-82
2021/12/20 09:10:23;;;;;;;21.00;9.20;;;2.60;99.90;;;;;;5065525;28;20163;-85
2021/12/20 09:12:49;;;;;;;14.67;8.90;;;2.70;99.90;;;;;;5062033;28;20203;-82
2021/12/20 09:15:17;;;;;;;20.73;9.00;;;2.70;99.90;;;;;;5064484;28;20209;-85
2021/12/20 09:17:49;;;;;;;17.63;9.10;;;2.80;99.90;;;;;;5058771;28;20183;-84
2021/12/20 09:20:17;;;;;;;26.23;7.97;;;2.80;99.90;;;;;;5057185;28;20724;-85
2021/12/20 09:22:51;;;;;;;19.47;8.90;;;2.80;99.90;;;;;;5056510;28;20247;-84
2021/12/20 09:25:18;;;;;;;11.53;7.87;;;2.80;99.90;;;;;;5056351;28;20214;-82
2021/12/20 09:27:44;;;;;;;16.03;8.37;;;2.90;99.90;;;;;;5059958;28;20176;-85
2021/12/20 09:30:11;;;;;;;19.90;8.67;;;2.90;99.90;;;;;;5063751;28;20186;-85
2021/12/20 09:32:37;;;;;;;16.00;8.43;;;3.00;99.90;;;;;;5080655;28;20202;-85
2021/12/20 09:35:04;;;;;;;16.20;9.40;;;3.10;99.90;;;;;;5063141;28;20202;-86
2021/12/20 09:37:30;;;;;;;21.33;9.80;;;3.20;99.90;;;;;;5062597;28;20218;-85
2021/12/20 09:39:55;;;;;;;17.20;8.57;;;3.30;99.90;;;;;;5061481;28;20209;-85
2021/12/20 09:42:22;;;;;;;16.60;8.93;;;3.40;99.90;;;;;;5061348;28;20198;-85
2021/12/20 09:44:48;;;;;;;22.53;9.63;;;3.60;99.90;;;;;;5060973;28;20225;-85
2021/12/20 09:47:15;;;;;;;21.60;9.77;;;3.70;99.90;;;;;;5061409;28;20174;-85
2021/12/20 09:49:41;;;;;;;19.10;9.60;;;3.80;99.90;;;;;;5062201;28;20184;-86
2021/12/20 09:52:07;;;;;;;16.17;9.20;;;3.90;99.90;;;;;;5062538;28;20229;-86
2021/12/20 09:54:33;;;;;;;18.57;8.40;;;3.90;99.90;;;;;;5078444;28;20194;-85
2021/12/20 09:57:02;;;;;;;20.33;9.73;;;4.00;99.90;;;;;;5062755;28;20716;-85
2021/12/20 09:59:29;;;;;;;19.57;9.17;;;4.00;99.90;;;;;;5061668;28;20202;-85
2021/12/20 10:01:57;;;;;;;22.63;8.93;;;4.10;99.90;;;;;;5061732;28;20198;-86
2021/12/20 10:04:24;;;;;;;23.23;8.13;;;4.20;99.90;;;;;;5062384;28;20177;-85
2021/12/20 10:06:57;;;;;;;23.23;9.17;;;4.20;99.90;;;;;;5062659;28;20242;-86
2021/12/20 10:09:29;;;;;;;19.47;9.27;;;4.30;99.90;;;;;;5063295;28;20167;-86
2021/12/20 10:12:24;;;;;;;22.17;9.33;;;4.30;99.90;;;;;;5063000;28;20202;-86
2021/12/20 10:15:12;;;;;;;20.00;9.03;;;4.50;99.90;;;;;;5064011;28;20206;-86
2021/12/20 10:17:58;;;;;;;20.13;8.87;;;4.60;99.90;;;;;;5065191;28;20178;-86
2021/12/20 10:20:32;;;;;;;19.17;9.47;;;4.70;99.90;;;;;;5067585;28;20201;-86
2021/12/20 10:23:13;;;;;;;18.80;8.90;;;4.80;99.90;;;;;;5067706;28;20197;-86
2021/12/20 10:25:40;;;;;;;18.50;9.07;;;4.90;99.90;;;;;;5084852;28;20730;-86
2021/12/20 10:28:21;;;;;;;15.60;9.07;;;5.10;99.90;;;;;;5067274;28;20186;-86
2021/12/20 10:31:10;;;;;;;26.77;10.00;;;5.20;99.90;;;;;;5085082;28;20238;-86
2021/12/20 10:33:37;;;;;;;25.33;10.07;;;5.30;99.90;;;;;;5068457;28;20253;-86
2021/12/20 10:36:12;;;;;;;20.80;8.27;;;5.40;99.90;;;;;;5068995;28;20175;-86
2021/12/20 10:39:00;;;;;;;22.93;9.70;;;5.50;99.90;;;;;;5086417;28;20173;-86
2021/12/20 10:41:35;;;;;;;20.93;9.37;;;5.70;99.90;;;;;;5070891;28;20166;-86
2021/12/20 10:44:14;;;;;;;22.27;9.03;;;5.90;99.90;;;;;;5069279;28;20177;-86
2021/12/20 10:46:46;;;;;;;18.83;8.83;;;6.10;99.90;;;;;;5066713;28;20216;-86
2021/12/20 10:49:14;;;;;;;19.40;8.33;;;6.20;99.90;;;;;;5067208;28;20217;-86
2021/12/20 10:51:41;;;;;;;24.47;8.63;;;6.30;99.90;;;;;;5066276;28;20231;-85
2021/12/20 10:54:11;;;;;;;23.33;8.60;;;6.40;99.90;;;;;;5067164;28;20178;-86
2021/12/20 10:56:51;;;;;;;13.20;8.63;;;6.60;99.90;;;;;;5067678;28;20204;-86
2021/12/20 10:59:20;;;;;;;24.43;8.63;;;6.60;99.90;;;;;;5084523;28;20202;-85
2021/12/20 11:04:46;;;;;;;16.77;8.37;;;6.90;99.90;;;;;;5069348;28;20189;-86
2021/12/20 11:09:55;;;;;;;18.03;8.27;;;7.20;99.90;;;;;;5069487;28;20161;-86
2021/12/20 11:12:30;;;;;;;16.00;7.53;;;7.40;99.90;;;;;;5068208;28;20629;-86
2021/12/20 11:15:00;;;;;;;16.90;8.67;;;7.50;99.90;;;;;;5066705;28;20174;-85
2021/12/20 11:17:28;;;;;;;14.70;7.73;;;7.60;99.90;;;;;;5067028;28;20184;-86
2021/12/20 11:19:55;;;;;;;21.03;7.53;;;7.70;99.90;;;;;;5066984;28;20206;-86
2021/12/20 11:22:25;;;;;;;19.20;8.27;;;7.90;99.90;;;;;;5065931;28;20191;-86
2021/12/20 11:25:06;;;;;;;19.93;7.90;;;8.00;99.90;;;;;;5065836;28;20561;-86
2021/12/20 11:27:33;;;;;;;17.33;7.13;;;8.00;99.90;;;;;;5066470;28;20158;-86
2021/12/20 11:30:10;;;;;;;15.63;8.10;;;7.90;99.90;;;;;;5064319;28;20179;-86
2021/12/20 11:32:36;;;;;;;16.90;8.13;;;7.90;99.90;;;;;;5081100;28;20578;-86
2021/12/20 11:35:02;;;;;;;14.93;7.00;;;7.80;99.90;;;;;;5064506;28;20247;-86
2021/12/20 11:37:29;;;;;;;17.13;6.87;;;7.90;99.90;;;;;;5063644;28;20552;-85
2021/12/20 11:39:57;;;;;;;17.70;7.13;;;8.10;99.90;;;;;;5064850;28;20210;-84
2021/12/20 11:42:24;;;;;;;17.23;7.57;;;8.30;99.90;;;;;;5067841;28;20214;-84
2021/12/20 11:44:57;;;;;;;18.97;6.97;;;8.50;99.90;;;;;;5061694;28;20178;-84
2021/12/20 11:47:44;;;;;;;17.00;7.20;;;8.50;99.90;;;;;;5061293;28;20163;-84
2021/12/20 11:50:17;;;;;;;16.23;6.97;;;8.50;99.90;;;;;;5077055;28;20166;-84
2021/12/20 11:52:46;;;;;;;15.10;6.57;;;8.40;99.90;;;;;;5059444;28;20198;-84
2021/12/20 11:55:25;;;;;;;17.10;6.50;;;8.50;99.90;;;;;;5059353;28;20182;-83
2021/12/20 11:57:53;;;;;;;13.23;6.83;;;8.40;99.90;;;;;;5059032;28;20162;-84
2021/12/20 12:00:22;;;;;;;17.30;7.20;;;8.50;99.90;;;;;;5059261;28;20252;-84
2021/12/20 12:02:50;;;;;;;13.53;6.03;;;8.50;99.90;;;;;;5059463;28;20223;-84
2021/12/20 12:05:27;;;;;;;15.23;6.97;;;8.60;99.90;;;;;;5079776;28;20179;-84
2021/12/20 12:07:53;;;;;;;16.63;6.90;;;8.70;99.90;;;;;;5062510;28;20170;-86
2021/12/20 12:10:28;;;;;;;15.13;7.20;;;8.70;99.90;;;;;;5059994;28;20242;-86
2021/12/20 12:13:00;;;;;;;13.30;6.13;;;8.70;99.90;;;;;;5062000;28;20190;-86
2021/12/20 12:15:44;;;;;;;14.00;5.77;;;8.60;99.90;;;;;;5059253;28;20178;-86
2021/12/20 12:18:10;;;;;;;14.50;6.13;;;8.60;99.90;;;;;;5059584;28;20170;-86
2021/12/20 12:20:39;;;;;;;8.67;5.33;;;8.60;99.90;;;;;;5058495;28;20632;-89
2021/12/20 12:23:11;;;;;;;12.63;5.63;;;8.60;99.90;;;;;;5052679;28;20205;-86
2021/12/20 12:25:44;;;;;;;15.13;5.90;;;8.60;99.90;;;;;;5052544;28;20204;-86
2021/12/20 12:28:11;;;;;;;11.80;5.60;;;8.70;99.90;;;;;;5052767;28;20163;-85
2021/12/20 12:30:38;;;;;;;9.67;5.60;;;8.60;99.90;;;;;;5052883;28;20181;-85
2021/12/20 12:33:03;;;;;;;11.07;5.20;;;8.60;99.90;;;;;;5052695;28;20244;-85
2021/12/20 12:35:49;;;;;;;10.40;5.27;;;8.80;99.90;;;;;;5056538;28;20166;-85
2021/12/20 12:38:26;;;;;;;11.07;5.20;;;8.80;99.90;;;;;;5057052;28;20631;-85
2021/12/20 12:41:13;;;;;;;8.50;5.10;;;8.80;99.90;;;;;;5056827;28;20166;-85
2021/12/20 12:43:52;;;;;;;9.10;5.00;;;8.90;99.90;;;;;;5056518;28;20205;-85
2021/12/20 12:46:40;;;;;;;10.77;5.23;;;8.70;99.90;;;;;;5057296;28;20201;-86
2021/12/20 12:49:21;;;;;;;10.80;5.83;;;8.70;99.90;;;;;;5057090;28;20533;-85
2021/12/20 12:51:49;;;;;;;5.90;4.70;;;8.70;99.90;;;;;;5056871;28;20567;-85
2021/12/20 12:54:33;;;;;;;7.20;4.77;;;8.50;99.90;;;;;;5057927;28;20185;-86
2021/12/20 12:57:11;;;;;;;10.13;5.70;;;8.70;99.90;;;;;;5056515;28;20171;-85
2021/12/20 12:59:43;;;;;;;6.93;4.57;;;8.60;99.90;;;;;;5056241;28;20221;-85
2021/12/20 13:02:22;;;;;;;6.87;4.53;;;8.60;99.90;;;;;;5055959;28;20194;-85
2021/12/20 13:04:52;;;;;;;8.27;4.90;;;8.50;99.90;;;;;;5073161;28;20162;-86
2021/12/20 13:07:21;;;;;;;6.57;4.50;;;8.40;99.90;;;;;;5056215;28;20206;-85
2021/12/20 13:09:48;;;;;;;13.07;5.40;;;8.30;99.90;;;;;;5057626;28;20178;-85
2021/12/20 13:13:05;;;;;;;11.33;5.17;;;8.40;99.90;;;;;;5056253;28;20202;-85
2021/12/20 13:17:41;;;;;;;5.13;4.60;;;8.00;99.90;;;;;;5057444;28;20190;-85